createdAt,value
2022-09-20T00:01:27.150Z,10.15
2022-09-20T00:03:57.817Z,10.02
2022-09-20T00:06:28.075Z,9.82
2022-09-20T00:08:57.714Z,9.70
2022-09-20T00:11:29.554Z,10.02
2022-09-20T00:13:59.859Z,10.57
2022-09-20T00:16:31.279Z,11.95
2022-09-20T00:19:03.866Z,12.23
2022-09-20T00:21:33.652Z,12.90
2022-09-20T00:24:02.247Z,13.32
2022-09-20T00:26:31.807Z,14.23
2022-09-20T00:29:00.353Z,14.00
2022-09-20T00:31:28.642Z,13.50
2022-09-20T00:34:14.937Z,12.35
2022-09-20T00:36:43.939Z,12.77
2022-09-20T00:39:13.711Z,14.45
2022-09-20T00:41:43.304Z,14.57
2022-09-20T00:44:53.946Z,14.18
2022-09-20T00:47:27.472Z,16.08
2022-09-20T00:50:01.090Z,17.02
2022-09-20T00:52:30.506Z,18.02
2022-09-20T00:55:00.058Z,16.92
2022-09-20T00:57:35.404Z,18.02
2022-09-20T01:00:08.156Z,18.48
2022-09-20T01:02:39.072Z,17.10
2022-09-20T01:05:10.452Z,16.73
2022-09-20T01:07:39.441Z,15.75
2022-09-20T01:10:08.254Z,18.58
2022-09-20T01:12:40.695Z,17.48
2022-09-20T01:15:10.855Z,17.20
2022-09-20T01:17:43.031Z,16.33
2022-09-20T01:20:16.901Z,19.02
2022-09-20T01:23:05.328Z,17.30
2022-09-20T01:26:08.315Z,17.83
2022-09-20T01:28:38.707Z,17.63
2022-09-20T01:31:13.076Z,18.63
2022-09-20T01:33:46.909Z,18.45
2022-09-20T01:36:20.161Z,17.63
2022-09-20T01:38:57.629Z,17.90
2022-09-20T01:41:32.078Z,18.00
2022-09-20T01:44:11.716Z,17.23
2022-09-20T01:46:41.606Z,19.98
2022-09-20T01:49:26.772Z,20.70
2022-09-20T01:52:42.899Z,19.90
2022-09-20T01:55:43.331Z,18.08
2022-09-20T01:58:38.055Z,19.05
2022-09-20T02:01:35.469Z,19.13
2022-09-20T02:04:40.474Z,18.83
2022-09-20T02:07:49.239Z,18.20
2022-09-20T02:10:36.315Z,19.13
2022-09-20T02:13:08.034Z,19.85
2022-09-20T02:15:51.202Z,20.85
2022-09-20T02:18:39.178Z,21.88
2022-09-20T02:21:18.988Z,23.52
2022-09-20T02:24:00.689Z,22.63
2022-09-20T02:26:42.118Z,22.25
2022-09-20T02:29:25.639Z,24.55
2022-09-20T02:32:24.161Z,23.02
2022-09-20T02:35:12.322Z,23.17
2022-09-20T02:37:58.464Z,24.77
2022-09-20T02:40:51.361Z,23.63
2022-09-20T02:43:27.021Z,22.67
2022-09-20T02:46:03.015Z,23.45
2022-09-20T02:48:39.310Z,21.60
2022-09-20T02:51:17.761Z,22.30
2022-09-20T02:53:56.459Z,23.27
2022-09-20T02:56:35.759Z,24.63
2022-09-20T02:59:14.098Z,24.67
2022-09-20T03:01:50.185Z,24.50
2022-09-20T03:04:35.928Z,25.38
2022-09-20T03:07:13.776Z,23.90
2022-09-20T03:09:49.325Z,22.40
2022-09-20T03:12:28.928Z,23.60
2022-09-20T03:15:11.403Z,22.17
2022-09-20T03:17:49.845Z,23.38
2022-09-20T03:20:34.027Z,22.37
2022-09-20T03:23:14.921Z,22.00
2022-09-20T03:25:56.134Z,22.38
2022-09-20T03:28:36.981Z,22.70
2022-09-20T03:31:20.703Z,21.92
2022-09-20T03:33:59.577Z,23.83
2022-09-20T03:36:42.953Z,23.27
2022-09-20T03:39:44.380Z,22.05
2022-09-20T03:42:17.611Z,22.98
2022-09-20T03:45:13.021Z,22.83
2022-09-20T03:48:06.889Z,22.43
2022-09-20T03:50:50.519Z,21.48
2022-09-20T03:54:09.698Z,20.00
2022-09-20T03:57:06.691Z,18.50
2022-09-20T04:00:06.299Z,18.63
2022-09-20T04:03:00.732Z,18.40
2022-09-20T04:05:38.781Z,18.55
2022-09-20T04:08:18.895Z,17.27
2022-09-20T04:10:54.653Z,16.88
2022-09-20T04:13:45.212Z,17.25
2022-09-20T04:16:24.884Z,15.15
2022-09-20T04:18:57.651Z,15.20
2022-09-20T04:21:32.951Z,15.95
2022-09-20T04:24:06.327Z,14.48
2022-09-20T04:26:40.692Z,14.30
2022-09-20T04:29:26.454Z,15.15
2022-09-20T04:32:01.392Z,15.27
2022-09-20T04:34:49.978Z,15.00
2022-09-20T04:37:27.671Z,13.48
2022-09-20T04:40:04.546Z,14.27
2022-09-20T04:43:11.452Z,13.73
2022-09-20T04:46:10.474Z,16.10
2022-09-20T04:48:56.967Z,14.13
2022-09-20T04:51:54.394Z,13.68
2022-09-20T04:54:52.489Z,14.40
2022-09-20T04:57:56.684Z,13.30
2022-09-20T05:00:27.378Z,14.73
2022-09-20T05:03:18.580Z,13.60
2022-09-20T05:06:08.499Z,14.80
2022-09-20T05:09:10.017Z,15.30
2022-09-20T05:11:57.125Z,15.32
2022-09-20T05:15:11.146Z,16.08
2022-09-20T05:18:05.768Z,15.48
2022-09-20T05:21:13.436Z,16.95
2022-09-20T05:24:08.389Z,17.73
2022-09-20T05:26:51.959Z,18.55
2022-09-20T05:29:26.505Z,18.35
2022-09-20T05:32:03.250Z,17.88
2022-09-20T05:34:42.473Z,17.83
2022-09-20T05:37:21.675Z,16.42
2022-09-20T05:40:00.372Z,16.20
2022-09-20T05:42:39.843Z,16.85
2022-09-20T05:45:23.588Z,17.73
2022-09-20T05:47:58.137Z,18.08
2022-09-20T05:50:41.135Z,18.27
2022-09-20T05:53:36.087Z,17.73
2022-09-20T05:56:12.887Z,18.48
2022-09-20T05:59:02.608Z,19.08
2022-09-20T06:01:35.324Z,19.20
2022-09-20T06:04:13.978Z,18.63
2022-09-20T06:06:53.436Z,17.92
2022-09-20T06:09:40.668Z,19.35
2022-09-20T06:12:21.764Z,18.45
2022-09-20T06:15:00.219Z,19.05
2022-09-20T06:17:34.211Z,19.88
2022-09-20T06:20:14.823Z,19.48
2022-09-20T06:22:47.245Z,20.15
2022-09-20T06:25:21.831Z,22.20
2022-09-20T06:27:54.877Z,21.48
2022-09-20T06:30:27.602Z,22.42
2022-09-20T06:32:58.184Z,21.25
2022-09-20T06:35:33.242Z,21.42
2022-09-20T06:38:35.161Z,19.70
2022-09-20T06:41:22.902Z,18.88
2022-09-20T06:43:51.127Z,17.98
2022-09-20T06:46:19.372Z,16.35
2022-09-20T06:48:50.373Z,17.05
2022-09-20T06:51:18.695Z,16.30
2022-09-20T06:53:48.573Z,16.33
2022-09-20T06:56:20.317Z,14.50
2022-09-20T06:58:48.715Z,12.25
2022-09-20T07:01:26.571Z,12.88
2022-09-20T07:03:57.713Z,11.15
2022-09-20T07:06:27.321Z,12.02
2022-09-20T07:08:57.025Z,14.77
2022-09-20T07:11:25.618Z,11.43
2022-09-20T07:13:56.382Z,12.68
2022-09-20T07:16:24.843Z,9.88
2022-09-20T07:18:53.263Z,9.63
2022-09-20T07:21:22.714Z,9.10
2022-09-20T07:23:51.320Z,8.15
2022-09-20T07:26:23.345Z,9.00
2022-09-20T07:28:52.327Z,9.68
2022-09-20T07:31:22.882Z,8.35
2022-09-20T07:33:51.538Z,7.50
2022-09-20T07:36:21.370Z,7.00
2022-09-20T07:38:50.398Z,5.90
2022-09-20T07:41:22.987Z,6.28
2022-09-20T07:43:52.301Z,6.25
2022-09-20T07:46:22.320Z,7.50
2022-09-20T07:48:50.658Z,9.27
2022-09-20T07:51:18.887Z,7.43
2022-09-20T07:53:47.094Z,6.70
2022-09-20T07:56:18.403Z,6.00
2022-09-20T07:58:52.265Z,4.68
2022-09-20T08:01:22.213Z,4.32
2022-09-20T08:03:51.890Z,2.92
2022-09-20T08:06:21.446Z,2.97
2022-09-20T08:08:51.703Z,3.63
2022-09-20T08:11:22.582Z,2.85
2022-09-20T08:14:09.547Z,2.20
2022-09-20T08:16:40.416Z,2.35
2022-09-20T08:19:08.770Z,2.33
2022-09-20T08:21:39.083Z,1.40
2022-09-20T08:24:07.737Z,1.13
2022-09-20T08:26:37.163Z,2.35
2022-09-20T08:29:07.237Z,0.95
2022-09-20T08:31:38.299Z,0.63
2022-09-20T08:34:09.028Z,1.00
2022-09-20T08:36:41.380Z,0.63
2022-09-20T08:42:03.264Z,0.80
2022-09-20T08:44:36.360Z,0.93
2022-09-20T08:47:13.924Z,1.30
2022-09-20T08:49:46.121Z,1.48
2022-09-20T08:52:21.098Z,1.02
2022-09-20T08:54:49.314Z,1.13
2022-09-20T08:57:19.652Z,1.40
2022-09-20T08:59:50.453Z,1.30
2022-09-20T09:02:20.702Z,1.40
2022-09-20T09:04:53.870Z,1.77
2022-09-20T09:07:23.700Z,0.70
2022-09-20T09:09:55.190Z,0.90
2022-09-20T09:12:25.725Z,1.08
2022-09-20T09:15:00.440Z,0.50
2022-09-20T09:17:30.074Z,0.50
2022-09-20T09:19:59.936Z,0.52
2022-09-20T09:22:35.289Z,0.30
2022-09-20T09:25:32.281Z,0.47
2022-09-20T09:28:02.637Z,0.40
2022-09-20T09:30:35.366Z,0.30
2022-09-20T09:33:26.627Z,0.50
2022-09-20T09:35:59.007Z,0.30
2022-09-20T09:38:30.721Z,0.40
2022-09-20T09:41:01.156Z,0.20
2022-09-20T09:43:32.031Z,0.30
2022-09-20T09:46:21.454Z,0.80
2022-09-20T09:49:06.716Z,0.28
2022-09-20T09:51:37.722Z,0.32
2022-09-20T09:54:06.636Z,0.63
2022-09-20T09:56:47.273Z,0.82
2022-09-20T09:59:40.335Z,1.02
2022-09-20T10:02:30.471Z,0.73
2022-09-20T10:05:03.163Z,1.30
2022-09-20T10:07:39.761Z,0.50
2022-09-20T10:10:18.317Z,0.40
2022-09-20T10:12:55.371Z,0.30
2022-09-20T10:15:34.230Z,0.50
2022-09-20T10:18:21.958Z,0.40
2022-09-20T10:21:00.366Z,0.20
2022-09-20T10:24:02.445Z,0.20
2022-09-20T10:27:10.538Z,0.30
2022-09-20T10:29:53.101Z,0.20
2022-09-20T10:32:31.607Z,0.20
2022-09-20T10:35:22.633Z,0.28
2022-09-20T10:38:12.746Z,0.20
2022-09-20T10:41:10.906Z,0.25
2022-09-20T10:44:05.111Z,0.30
2022-09-20T10:46:51.604Z,0.22
2022-09-20T10:49:29.179Z,0.20
2022-09-20T10:52:15.239Z,0.20
2022-09-20T10:54:57.518Z,0.68
2022-09-20T10:57:54.667Z,0.85
2022-09-20T11:00:24.693Z,0.90
2022-09-20T11:03:09.728Z,0.77
2022-09-20T11:05:47.697Z,0.60
2022-09-20T11:08:22.887Z,0.50
2022-09-20T11:10:55.300Z,0.40
2022-09-20T11:13:31.544Z,0.40
2022-09-20T11:16:06.127Z,0.50
2022-09-20T11:18:40.752Z,0.30
2022-09-20T11:21:16.649Z,0.30
2022-09-20T11:23:55.941Z,0.32
2022-09-20T11:29:40.012Z,0.30
2022-09-20T11:32:16.503Z,0.30
2022-09-20T11:34:53.546Z,0.38
2022-09-20T11:37:23.963Z,0.30
2022-09-20T11:39:56.163Z,0.40
2022-09-20T11:42:29.659Z,0.30
2022-09-20T11:44:58.258Z,0.20
2022-09-20T11:47:53.930Z,0.45
2022-09-20T11:50:48.470Z,0.68
2022-09-20T11:53:41.805Z,0.40
2022-09-20T11:56:17.857Z,0.45
2022-09-20T11:58:48.831Z,0.50
2022-09-20T12:01:28.201Z,0.73
2022-09-20T12:04:20.978Z,0.98
2022-09-20T12:06:57.812Z,1.23
2022-09-20T12:09:29.640Z,0.60
2022-09-20T12:12:00.680Z,0.60
2022-09-20T12:14:32.405Z,0.70
2022-09-20T12:17:00.765Z,0.40
2022-09-20T12:19:40.231Z,0.50
2022-09-20T12:22:29.526Z,0.40
2022-09-20T12:25:35.072Z,0.40
2022-09-20T12:28:05.373Z,0.20
2022-09-20T12:30:33.929Z,0.20
2022-09-20T12:33:04.142Z,0.20
2022-09-20T12:36:01.287Z,0.28
2022-09-20T12:38:41.469Z,0.30
2022-09-20T12:41:13.439Z,0.30
2022-09-20T12:43:56.294Z,0.22
2022-09-20T12:46:43.770Z,0.28
2022-09-20T12:49:50.559Z,0.20
2022-09-20T12:53:00.692Z,0.30
2022-09-20T12:55:33.851Z,0.68
2022-09-20T12:58:05.812Z,0.30
2022-09-20T13:00:40.821Z,0.40
2022-09-20T13:03:23.821Z,0.20
2022-09-20T13:06:12.893Z,0.40
2022-09-20T13:08:44.322Z,0.30
2022-09-20T13:11:17.620Z,0.25
2022-09-20T13:13:49.695Z,0.40
2022-09-20T13:16:23.854Z,0.20
2022-09-20T13:18:59.120Z,0.40
2022-09-20T13:21:27.968Z,0.20
2022-09-20T13:23:56.401Z,0.40
2022-09-20T13:26:30.134Z,0.30
2022-09-20T13:29:00.273Z,0.30
2022-09-20T13:31:33.721Z,0.20
2022-09-20T13:34:24.764Z,0.40
2022-09-20T13:36:56.638Z,0.30
2022-09-20T13:39:35.205Z,0.10
2022-09-20T13:42:08.380Z,0.20
2022-09-20T13:44:37.357Z,0.10
2022-09-20T13:47:23.707Z,1.05
2022-09-20T13:49:52.203Z,0.20
2022-09-20T13:52:31.549Z,0.20
2022-09-20T13:54:59.761Z,0.10
2022-09-20T13:57:29.932Z,0.10
2022-09-20T13:59:59.678Z,0.10
2022-09-20T14:02:32.920Z,0.30
2022-09-20T14:05:04.725Z,0.10
2022-09-20T14:07:36.459Z,0.10
2022-09-20T14:10:05.987Z,0.10
2022-09-20T14:12:34.782Z,0.15
2022-09-20T14:15:08.618Z,0.10
2022-09-20T14:17:38.497Z,0.10
2022-09-20T14:20:08.550Z,0.25
2022-09-20T14:22:36.935Z,0.20
2022-09-20T14:25:21.190Z,0.10
2022-09-20T14:27:49.482Z,0.20
2022-09-20T14:30:31.913Z,0.28
2022-09-20T14:33:01.859Z,0.25
2022-09-20T14:35:31.015Z,0.38
2022-09-20T14:38:02.694Z,0.20
2022-09-20T14:40:33.461Z,0.22
2022-09-20T14:43:03.516Z,0.30
2022-09-20T14:45:34.315Z,0.30
2022-09-20T14:48:10.729Z,0.20
2022-09-20T14:50:42.263Z,0.20
2022-09-20T14:53:31.856Z,0.20
2022-09-20T14:56:08.889Z,0.20
2022-09-20T14:59:18.830Z,0.30
2022-09-20T15:01:58.384Z,0.20
2022-09-20T15:04:28.847Z,0.20
2022-09-20T15:06:57.937Z,0.30
2022-09-20T15:09:26.177Z,0.22
2022-09-20T15:12:02.358Z,0.20
2022-09-20T15:14:35.063Z,0.20
2022-09-20T15:17:06.251Z,0.20
2022-09-20T15:19:35.855Z,0.13
2022-09-20T15:22:04.116Z,0.20
2022-09-20T15:24:32.435Z,0.43
2022-09-20T15:27:00.726Z,0.20
2022-09-20T15:29:29.243Z,0.20
2022-09-20T15:31:57.777Z,0.38
2022-09-20T15:34:26.286Z,0.20
2022-09-20T15:36:55.871Z,0.20
2022-09-20T15:39:24.682Z,0.20
2022-09-20T15:41:53.290Z,0.30
2022-09-20T15:44:22.077Z,0.10
2022-09-20T15:46:52.517Z,0.10
2022-09-20T15:49:20.838Z,0.20
2022-09-20T15:51:49.376Z,0.20
2022-09-20T15:54:19.642Z,0.10
2022-09-20T15:56:47.995Z,0.13
2022-09-20T15:59:17.315Z,0.10
2022-09-20T16:01:48.146Z,0.20
2022-09-20T16:04:19.526Z,0.43
2022-09-20T16:06:49.882Z,0.10
2022-09-20T16:09:19.920Z,0.10
2022-09-20T16:11:48.606Z,0.20
2022-09-20T16:14:16.933Z,0.30
2022-09-20T16:16:45.251Z,0.20
2022-09-20T16:19:20.161Z,0.35
2022-09-20T16:21:55.145Z,0.20
2022-09-20T16:24:28.103Z,0.10
2022-09-20T16:26:56.577Z,0.20
2022-09-20T16:29:25.950Z,0.20
2022-09-20T16:31:55.781Z,0.35
2022-09-20T16:34:30.237Z,0.10
2022-09-20T16:37:00.368Z,0.13
2022-09-20T16:39:31.212Z,0.10
2022-09-20T16:42:04.905Z,0.20
2022-09-20T16:44:33.835Z,0.15
2022-09-20T16:47:02.294Z,0.20
2022-09-20T16:49:31.592Z,0.40
2022-09-20T16:51:59.799Z,0.30
2022-09-20T16:54:32.132Z,0.30
2022-09-20T16:57:00.743Z,0.20
2022-09-20T16:59:29.052Z,0.20
2022-09-20T17:01:57.264Z,0.20
2022-09-20T17:04:26.572Z,0.20
2022-09-20T17:06:55.657Z,0.25
2022-09-20T17:09:23.920Z,0.20
2022-09-20T17:11:53.822Z,0.20
2022-09-20T17:14:22.239Z,0.28
2022-09-20T17:16:51.077Z,0.10
2022-09-20T17:19:20.710Z,0.20
2022-09-20T17:21:50.795Z,0.20
2022-09-20T17:24:20.844Z,0.10
2022-09-20T17:26:50.781Z,0.20
2022-09-20T17:29:21.693Z,0.75
2022-09-20T17:31:55.749Z,0.30
2022-09-20T17:34:26.460Z,0.30
2022-09-20T17:36:55.474Z,0.50
2022-09-20T17:39:24.326Z,0.25
2022-09-20T17:41:52.827Z,0.60
2022-09-20T17:44:22.661Z,0.60
2022-09-20T17:46:54.090Z,0.50
2022-09-20T17:49:23.936Z,0.90
2022-09-20T17:51:53.356Z,0.50
2022-09-20T17:54:22.347Z,0.60
2022-09-20T17:56:53.533Z,0.65
2022-09-20T17:59:23.292Z,0.43
2022-09-20T18:01:52.486Z,0.40
2022-09-20T18:04:24.267Z,0.30
2022-09-20T18:06:54.602Z,0.43
2022-09-20T18:09:24.947Z,0.57
2022-09-20T18:11:54.687Z,0.57
2022-09-20T18:14:28.503Z,0.63
2022-09-20T18:17:00.904Z,0.73
2022-09-20T18:19:32.996Z,0.90
2022-09-20T18:22:02.281Z,1.10
2022-09-20T18:24:31.292Z,0.70
2022-09-20T18:27:00.702Z,0.65
2022-09-20T18:29:36.775Z,0.60
2022-09-20T18:32:05.480Z,1.00
2022-09-20T18:34:34.255Z,0.70
2022-09-20T18:37:03.757Z,1.13
2022-09-20T18:39:34.877Z,1.50
2022-09-20T18:42:04.142Z,1.42
2022-09-20T18:44:34.039Z,1.77
2022-09-20T18:47:03.740Z,1.60
2022-09-20T18:49:32.598Z,2.65
2022-09-20T18:52:00.966Z,2.22
2022-09-20T18:54:30.519Z,1.92
2022-09-20T18:56:59.612Z,3.25
2022-09-20T18:59:29.187Z,2.88
2022-09-20T19:02:22.429Z,2.05
2022-09-20T19:05:14.831Z,2.42
2022-09-20T19:07:52.664Z,2.75
2022-09-20T19:10:28.036Z,2.20
2022-09-20T19:13:05.499Z,2.80
2022-09-20T19:15:53.711Z,2.85
2022-09-20T19:18:44.416Z,2.65
2022-09-20T19:21:22.775Z,2.70
2022-09-20T19:24:03.895Z,2.53
2022-09-20T19:26:39.989Z,3.13
2022-09-20T19:29:18.111Z,3.38
2022-09-20T19:31:48.995Z,2.83
2022-09-20T19:34:22.110Z,3.13
2022-09-20T19:37:03.549Z,3.40
2022-09-20T19:39:52.443Z,2.83
2022-09-20T19:42:30.074Z,3.50
2022-09-20T19:45:09.945Z,3.33
2022-09-20T19:47:51.090Z,4.30
2022-09-20T19:50:33.229Z,4.97
2022-09-20T19:53:03.907Z,4.65
2022-09-20T19:55:33.260Z,3.13
2022-09-20T19:58:02.139Z,4.15
2022-09-20T20:00:31.413Z,3.67
2022-09-20T20:03:00.295Z,3.95
2022-09-20T20:05:30.577Z,4.43
2022-09-20T20:08:17.503Z,4.75
2022-09-20T20:10:59.070Z,4.55
2022-09-20T20:13:52.115Z,5.55
2022-09-20T20:16:28.681Z,7.05
2022-09-20T20:19:19.555Z,6.97
2022-09-20T20:21:56.227Z,7.82
2022-09-20T20:24:30.959Z,8.35
2022-09-20T20:26:59.147Z,8.32
2022-09-20T20:29:27.393Z,8.98
2022-09-20T20:31:55.761Z,9.20
2022-09-20T20:34:26.433Z,9.13
2022-09-20T20:37:00.922Z,9.13
2022-09-20T20:39:31.598Z,9.10
2022-09-20T20:42:02.472Z,10.43
2022-09-20T20:44:31.129Z,10.18
2022-09-20T20:46:59.347Z,9.95
2022-09-20T20:49:27.728Z,12.23
2022-09-20T20:51:57.507Z,12.60
2022-09-20T20:54:25.707Z,14.05
2022-09-20T20:56:53.947Z,13.82
2022-09-20T20:59:22.277Z,12.38
2022-09-20T21:01:50.475Z,14.15
2022-09-20T21:04:18.789Z,13.43
2022-09-20T21:06:47.422Z,12.35
2022-09-20T21:09:17.096Z,11.90
2022-09-20T21:11:48.396Z,15.88
2022-09-20T21:14:16.844Z,16.65
2022-09-20T21:16:45.564Z,18.40
2022-09-20T21:19:15.843Z,18.77
2022-09-20T21:21:46.136Z,20.35
2022-09-20T21:24:18.000Z,23.38
2022-09-20T21:26:46.946Z,20.08
2022-09-20T21:29:16.156Z,26.73
2022-09-20T21:31:46.791Z,25.35
2022-09-20T21:34:16.668Z,26.48
2022-09-20T21:36:45.357Z,26.33
2022-09-20T21:39:13.752Z,23.27
2022-09-20T21:41:43.417Z,26.38
2022-09-20T21:44:12.199Z,29.60
2022-09-20T21:46:41.688Z,30.95
2022-09-20T21:49:12.073Z,26.42
2022-09-20T21:51:42.064Z,32.15
2022-09-20T21:54:11.070Z,32.30
2022-09-20T21:56:41.224Z,31.95
2022-09-20T21:59:10.910Z,39.20
2022-09-20T22:01:41.149Z,32.47
2022-09-20T22:04:11.115Z,31.63
2022-09-20T22:06:41.453Z,30.85
2022-09-20T22:09:10.985Z,32.67
2022-09-20T22:11:40.688Z,30.02
2022-09-20T22:14:11.217Z,29.33
2022-09-20T22:16:41.222Z,30.77
2022-09-20T22:19:11.288Z,32.40
2022-09-20T22:21:41.885Z,28.38
2022-09-20T22:24:12.227Z,28.95
2022-09-20T22:26:43.691Z,28.43
2022-09-20T22:29:14.026Z,28.80
2022-09-20T22:31:45.499Z,28.53
2022-09-20T22:34:17.112Z,26.40
2022-09-20T22:36:46.195Z,26.25
2022-09-20T22:39:15.014Z,27.90
2022-09-20T22:41:44.731Z,26.92
2022-09-20T22:44:14.980Z,27.88
2022-09-20T22:46:43.639Z,29.70
2022-09-20T22:49:12.142Z,32.30
2022-09-20T22:51:40.888Z,28.50
2022-09-20T22:54:11.211Z,27.73
2022-09-20T22:56:41.435Z,27.83
2022-09-20T22:59:11.704Z,28.27
2022-09-20T23:01:43.400Z,26.40
2022-09-20T23:04:14.627Z,27.15
2022-09-20T23:06:44.286Z,27.87
2022-09-20T23:09:14.543Z,28.77
2022-09-20T23:11:43.856Z,28.93
2022-09-20T23:14:13.794Z,30.85
2022-09-20T23:16:44.482Z,32.22
2022-09-20T23:19:13.613Z,30.93
2022-09-20T23:21:43.330Z,31.65
2022-09-20T23:24:13.542Z,30.38
2022-09-20T23:26:42.858Z,33.00
2022-09-20T23:29:13.060Z,30.73
2022-09-20T23:31:46.185Z,30.17
2022-09-20T23:34:16.644Z,28.70
2022-09-20T23:36:46.163Z,28.45
2022-09-20T23:39:15.396Z,31.42
2022-09-20T23:41:48.355Z,29.80
2022-09-20T23:44:19.312Z,29.63
2022-09-20T23:46:49.294Z,31.27
2022-09-20T23:49:17.865Z,29.55
2022-09-20T23:51:46.352Z,27.90
2022-09-20T23:54:14.860Z,28.75
2022-09-20T23:56:43.298Z,29.00
2022-09-20T23:59:12.028Z,29.17
